sensor_id;sensor_type;location;lat;lon;timestamp;pressure;altitude;pressure_sealevel;temperature;humidity
18569;BME280;14780;48.316;-1.050;2022-09-01T00:02:23;99168.50;;;27.86;43.11
18569;BME280;14780;48.316;-1.050;2022-09-01T00:05:11;99166.06;;;27.85;43.30
18569;BME280;14780;48.316;-1.050;2022-09-01T00:07:56;99175.09;;;27.85;43.35
18569;BME280;14780;48.316;-1.050;2022-09-01T00:10:40;99177.34;;;27.83;43.16
18569;BME280;14780;48.316;-1.050;2022-09-01T00:13:26;99164.38;;;27.84;43.15
18569;BME280;14780;48.316;-1.050;2022-09-01T00:16:11;99164.38;;;27.84;43.40
18569;BME280;14780;48.316;-1.050;2022-09-01T00:18:57;99162.75;;;27.83;43.33
18569;BME280;14780;48.316;-1.050;2022-09-01T00:21:44;99164.38;;;27.84;43.29
18569;BME280;14780;48.316;-1.050;2022-09-01T00:24:29;99152.59;;;27.83;43.36
18569;BME280;14780;48.316;-1.050;2022-09-01T00:27:14;99153.41;;;27.84;43.14
18569;BME280;14780;48.316;-1.050;2022-09-01T00:29:59;99142.72;;;27.82;43.47
18569;BME280;14780;48.316;-1.050;2022-09-01T00:32:44;99126.22;;;27.82;43.24
18569;BME280;14780;48.316;-1.050;2022-09-01T00:35:30;99125.66;;;27.80;43.50
18569;BME280;14780;48.316;-1.050;2022-09-01T00:38:14;99125.38;;;27.82;43.47
18569;BME280;14780;48.316;-1.050;2022-09-01T00:41:00;99121.84;;;27.81;43.28
18569;BME280;14780;48.316;-1.050;2022-09-01T00:43:56;99112.47;;;27.82;43.33
18569;BME280;14780;48.316;-1.050;2022-09-01T00:46:49;99113.59;;;27.81;43.32
18569;BME280;14780;48.316;-1.050;2022-09-01T00:49:44;99121.84;;;27.81;43.31
18569;BME280;14780;48.316;-1.050;2022-09-01T00:52:44;99116.34;;;27.81;43.45
18569;BME280;14780;48.316;-1.050;2022-09-01T00:55:30;99118.53;;;27.79;43.37
18569;BME280;14780;48.316;-1.050;2022-09-01T00:58:17;99113.03;;;27.79;43.38
18569;BME280;14780;48.316;-1.050;2022-09-01T01:01:03;99113.03;;;27.79;43.36
18569;BME280;14780;48.316;-1.050;2022-09-01T01:03:48;99121.63;;;27.78;43.41
18569;BME280;14780;48.316;-1.050;2022-09-01T01:06:33;99105.63;;;27.80;43.37
18569;BME280;14780;48.316;-1.050;2022-09-01T01:09:21;99110.28;;;27.79;43.60
18569;BME280;14780;48.316;-1.050;2022-09-01T01:12:07;99107.53;;;27.79;43.60
18569;BME280;14780;48.316;-1.050;2022-09-01T01:14:55;99106.75;;;27.79;43.58
18569;BME280;14780;48.316;-1.050;2022-09-01T01:17:40;99112.25;;;27.79;43.55
18569;BME280;14780;48.316;-1.050;2022-09-01T01:20:27;99111.41;;;27.78;43.42
18569;BME280;14780;48.316;-1.050;2022-09-01T01:23:41;99119.66;;;27.78;43.52
18569;BME280;14780;48.316;-1.050;2022-09-01T01:26:28;99110.63;;;27.78;43.65
18569;BME280;14780;48.316;-1.050;2022-09-01T01:29:14;99102.66;;;27.76;43.45
18569;BME280;14780;48.316;-1.050;2022-09-01T01:31:59;99109.78;;;27.77;43.52
18569;BME280;14780;48.316;-1.050;2022-09-01T01:34:45;99102.66;;;27.76;43.55
18569;BME280;14780;48.316;-1.050;2022-09-01T01:37:32;99101.81;;;27.76;43.49
18569;BME280;14780;48.316;-1.050;2022-09-01T01:40:20;99097.16;;;27.76;43.56
18569;BME280;14780;48.316;-1.050;2022-09-01T01:43:06;99097.16;;;27.76;43.56
18569;BME280;14780;48.316;-1.050;2022-09-01T01:45:53;99101.81;;;27.76;43.61
18569;BME280;14780;48.316;-1.050;2022-09-01T01:48:41;99091.66;;;27.76;43.76
18569;BME280;14780;48.316;-1.050;2022-09-01T01:51:25;99099.06;;;27.76;43.54
18569;BME280;14780;48.316;-1.050;2022-09-01T01:54:12;99088.38;;;27.74;43.69
18569;BME280;14780;48.316;-1.050;2022-09-01T01:56:58;99093.03;;;27.74;43.70
18569;BME280;14780;48.316;-1.050;2022-09-01T01:59:44;99090.00;;;27.75;43.77
18569;BME280;14780;48.316;-1.050;2022-09-01T02:02:29;99099.34;;;27.74;43.61
18569;BME280;14780;48.316;-1.050;2022-09-01T02:05:15;99101.00;;;27.75;43.54
18569;BME280;14780;48.316;-1.050;2022-09-01T02:08:08;99099.34;;;27.74;43.67
18569;BME280;14780;48.316;-1.050;2022-09-01T02:10:54;99100.16;;;27.75;43.64
18569;BME280;14780;48.316;-1.050;2022-09-01T02:13:41;99099.34;;;27.74;43.59
18569;BME280;14780;48.316;-1.050;2022-09-01T02:16:28;99105.16;;;27.73;43.73
18569;BME280;14780;48.316;-1.050;2022-09-01T02:19:13;99104.03;;;27.74;43.60
18569;BME280;14780;48.316;-1.050;2022-09-01T02:21:58;99102.09;;;27.74;43.66
18569;BME280;14780;48.316;-1.050;2022-09-01T02:24:44;99105.94;;;27.73;43.56
18569;BME280;14780;48.316;-1.050;2022-09-01T02:27:33;99109.81;;;27.72;43.61
18569;BME280;14780;48.316;-1.050;2022-09-01T02:30:23;99103.19;;;27.73;43.80
18569;BME280;14780;48.316;-1.050;2022-09-01T02:33:08;99112.56;;;27.72;43.71
18569;BME280;14780;48.316;-1.050;2022-09-01T02:35:56;99107.06;;;27.72;43.68
18569;BME280;14780;48.316;-1.050;2022-09-01T02:38:42;99107.06;;;27.72;43.66
18569;BME280;14780;48.316;-1.050;2022-09-01T02:41:29;99107.91;;;27.73;43.70
18569;BME280;14780;48.316;-1.050;2022-09-01T02:44:16;99104.63;;;27.71;43.63
18569;BME280;14780;48.316;-1.050;2022-09-01T02:47:05;99104.63;;;27.71;43.92
18569;BME280;14780;48.316;-1.050;2022-09-01T02:49:52;99108.19;;;27.71;43.63
18569;BME280;14780;48.316;-1.050;2022-09-01T02:52:37;99109.81;;;27.72;43.57
18569;BME280;14780;48.316;-1.050;2022-09-01T02:55:24;99123.88;;;27.71;43.83
18569;BME280;14780;48.316;-1.050;2022-09-01T02:58:09;99123.03;;;27.70;43.71
18569;BME280;14780;48.316;-1.050;2022-09-01T03:00:59;99123.03;;;27.70;43.85
18569;BME280;14780;48.316;-1.050;2022-09-01T03:03:44;99116.72;;;27.70;43.89
18569;BME280;14780;48.316;-1.050;2022-09-01T03:06:29;99113.97;;;27.70;43.84
18569;BME280;14780;48.316;-1.050;2022-09-01T03:09:18;99102.97;;;27.70;43.88
18569;BME280;14780;48.316;-1.050;2022-09-01T03:12:03;99113.16;;;27.69;43.90
18569;BME280;14780;48.316;-1.050;2022-09-01T03:14:50;99113.16;;;27.69;43.67
18569;BME280;14780;48.316;-1.050;2022-09-01T03:17:35;99112.34;;;27.69;43.90
18569;BME280;14780;48.316;-1.050;2022-09-01T03:20:19;99106.84;;;27.69;43.62
18569;BME280;14780;48.316;-1.050;2022-09-01T03:23:07;99095.03;;;27.68;43.82
18569;BME280;14780;48.316;-1.050;2022-09-01T03:25:52;99106.56;;;27.70;43.97
18569;BME280;14780;48.316;-1.050;2022-09-01T03:28:37;99102.16;;;27.69;43.71
18569;BME280;14780;48.316;-1.050;2022-09-01T03:31:22;99105.72;;;27.70;43.93
18569;BME280;14780;48.316;-1.050;2022-09-01T03:34:11;99101.34;;;27.69;43.93
18569;BME280;14780;48.316;-1.050;2022-09-01T03:36:56;99097.78;;;27.68;43.77
18569;BME280;14780;48.316;-1.050;2022-09-01T03:39:40;99098.59;;;27.69;43.94
18569;BME280;14780;48.316;-1.050;2022-09-01T03:42:25;99095.03;;;27.68;43.94
18569;BME280;14780;48.316;-1.050;2022-09-01T03:45:13;99097.78;;;27.68;43.84
18569;BME280;14780;48.316;-1.050;2022-09-01T03:47:59;99100.53;;;27.68;43.75
18569;BME280;14780;48.316;-1.050;2022-09-01T03:50:45;99093.41;;;27.67;43.85
18569;BME280;14780;48.316;-1.050;2022-09-01T03:53:34;99083.22;;;27.68;43.98
18569;BME280;14780;48.316;-1.050;2022-09-01T03:56:22;99093.03;;;27.74;43.78
18569;BME280;14780;48.316;-1.050;2022-09-01T03:59:11;99086.25;;;27.66;44.01
18569;BME280;14780;48.316;-1.050;2022-09-01T04:02:00;99086.25;;;27.66;44.02
18569;BME280;14780;48.316;-1.050;2022-09-01T04:04:46;99078.63;;;27.63;43.90
18569;BME280;14780;48.316;-1.050;2022-09-01T04:07:30;99085.75;;;27.64;44.05
18569;BME280;14780;48.316;-1.050;2022-09-01T04:10:17;99081.38;;;27.63;43.98
18569;BME280;14780;48.316;-1.050;2022-09-01T04:13:02;99086.25;;;27.66;43.79
18569;BME280;14780;48.316;-1.050;2022-09-01T04:15:49;99082.19;;;27.64;44.00
18569;BME280;14780;48.316;-1.050;2022-09-01T04:18:33;99084.63;;;27.65;44.02
18569;BME280;14780;48.316;-1.050;2022-09-01T04:21:19;99080.25;;;27.64;43.98
18569;BME280;14780;48.316;-1.050;2022-09-01T04:24:04;99079.44;;;27.64;44.03
18569;BME280;14780;48.316;-1.050;2022-09-01T04:26:51;99075.03;;;27.63;43.98
18569;BME280;14780;48.316;-1.050;2022-09-01T04:29:36;99075.88;;;27.63;43.85
18569;BME280;14780;48.316;-1.050;2022-09-01T04:32:21;99071.19;;;27.64;43.97
18569;BME280;14780;48.316;-1.050;2022-09-01T04:35:07;99068.75;;;27.62;43.92
18569;BME280;14780;48.316;-1.050;2022-09-01T04:37:54;99071.50;;;27.62;43.76
18569;BME280;14780;48.316;-1.050;2022-09-01T04:40:39;99072.59;;;27.61;43.92
18569;BME280;14780;48.316;-1.050;2022-09-01T04:43:24;99068.75;;;27.62;43.86
18569;BME280;14780;48.316;-1.050;2022-09-01T04:46:09;99070.66;;;27.62;44.05
18569;BME280;14780;48.316;-1.050;2022-09-01T04:48:58;99067.09;;;27.61;44.05
18569;BME280;14780;48.316;-1.050;2022-09-01T04:51:46;99067.09;;;27.61;44.06
18569;BME280;14780;48.316;-1.050;2022-09-01T04:54:31;99067.41;;;27.60;43.84
18569;BME280;14780;48.316;-1.050;2022-09-01T04:57:21;99067.09;;;27.61;43.84
18569;BME280;14780;48.316;-1.050;2022-09-01T05:00:07;99066.59;;;27.59;43.88
18569;BME280;14780;48.316;-1.050;2022-09-01T05:03:06;99062.19;;;27.58;43.86
18569;BME280;14780;48.316;-1.050;2022-09-01T05:05:51;99063.84;;;27.59;43.95
18569;BME280;14780;48.316;-1.050;2022-09-01T05:08:37;99058.34;;;27.59;43.94
18569;BME280;14780;48.316;-1.050;2022-09-01T05:11:23;99059.44;;;27.58;44.03
18569;BME280;14780;48.316;-1.050;2022-09-01T05:14:09;99056.69;;;27.58;44.06
18569;BME280;14780;48.316;-1.050;2022-09-01T05:16:58;99059.44;;;27.58;44.13
18569;BME280;14780;48.316;-1.050;2022-09-01T05:19:44;99056.69;;;27.58;43.98
18569;BME280;14780;48.316;-1.050;2022-09-01T05:22:31;99055.88;;;27.58;44.11
18569;BME280;14780;48.316;-1.050;2022-09-01T05:25:16;99050.41;;;27.58;44.06
18569;BME280;14780;48.316;-1.050;2022-09-01T05:28:02;99061.38;;;27.58;43.84
18569;BME280;14780;48.316;-1.050;2022-09-01T05:30:47;99060.56;;;27.57;44.07
18569;BME280;14780;48.316;-1.050;2022-09-01T05:33:32;99062.19;;;27.58;44.06
18569;BME280;14780;48.316;-1.050;2022-09-01T05:36:22;99058.94;;;27.56;43.94
18569;BME280;14780;48.316;-1.050;2022-09-01T05:39:07;99061.38;;;27.58;44.14
18569;BME280;14780;48.316;-1.050;2022-09-01T05:41:54;99055.06;;;27.57;44.02
18569;BME280;14780;48.316;-1.050;2022-09-01T05:44:40;99058.13;;;27.56;44.17
18569;BME280;14780;48.316;-1.050;2022-09-01T05:47:27;99050.69;;;27.56;44.12
18569;BME280;14780;48.316;-1.050;2022-09-01T05:50:12;99054.56;;;27.55;43.91
18569;BME280;14780;48.316;-1.050;2022-09-01T05:53:00;99064.44;;;27.56;44.14
18569;BME280;14780;48.316;-1.050;2022-09-01T05:55:47;99050.97;;;27.55;44.11
18569;BME280;14780;48.316;-1.050;2022-09-01T05:58:33;99050.69;;;27.56;44.02
18569;BME280;14780;48.316;-1.050;2022-09-01T06:01:25;99058.94;;;27.56;44.18
18569;BME280;14780;48.316;-1.050;2022-09-01T06:04:11;99060.88;;;27.56;43.92
18569;BME280;14780;48.316;-1.050;2022-09-01T06:06:57;99063.63;;;27.56;44.04
18569;BME280;14780;48.316;-1.050;2022-09-01T06:09:45;99061.69;;;27.56;43.99
18569;BME280;14780;48.316;-1.050;2022-09-01T06:12:29;99066.38;;;27.56;44.17
18569;BME280;14780;48.316;-1.050;2022-09-01T06:15:14;99070.75;;;27.57;43.97
18569;BME280;14780;48.316;-1.050;2022-09-01T06:17:59;99069.13;;;27.56;44.20
18569;BME280;14780;48.316;-1.050;2022-09-01T06:20:46;99068.28;;;27.55;44.02
18569;BME280;14780;48.316;-1.050;2022-09-01T06:23:31;99065.25;;;27.57;43.95
18569;BME280;14780;48.316;-1.050;2022-09-01T06:26:19;99059.75;;;27.57;43.98
18569;BME280;14780;48.316;-1.050;2022-09-01T06:29:07;99067.16;;;27.56;44.19
18569;BME280;14780;48.316;-1.050;2022-09-01T06:31:53;99064.13;;;27.58;44.08
18569;BME280;14780;48.316;-1.050;2022-09-01T06:34:39;99066.88;;;27.58;44.08
18569;BME280;14780;48.316;-1.050;2022-09-01T06:37:25;99063.63;;;27.56;44.25
18569;BME280;14780;48.316;-1.050;2022-09-01T06:40:13;99061.38;;;27.58;44.04
18569;BME280;14780;48.316;-1.050;2022-09-01T06:43:01;99074.00;;;27.59;43.97
18569;BME280;14780;48.316;-1.050;2022-09-01T06:45:51;99074.31;;;27.57;44.22
18569;BME280;14780;48.316;-1.050;2022-09-01T06:48:38;99077.06;;;27.57;44.30
18569;BME280;14780;48.316;-1.050;2022-09-01T06:51:30;99078.69;;;27.58;44.27
18569;BME280;14780;48.316;-1.050;2022-09-01T06:54:15;99074.84;;;27.59;44.13
18569;BME280;14780;48.316;-1.050;2022-09-01T06:57:01;99081.13;;;27.60;44.29
18569;BME280;14780;48.316;-1.050;2022-09-01T06:59:47;99080.91;;;27.56;44.25
18569;BME280;14780;48.316;-1.050;2022-09-01T07:02:33;99082.53;;;27.57;44.03
18569;BME280;14780;48.316;-1.050;2022-09-01T07:05:18;99083.16;;;27.54;43.96
18569;BME280;14780;48.316;-1.050;2022-09-01T07:08:06;99098.81;;;27.54;44.22
18569;BME280;14780;48.316;-1.050;2022-09-01T07:10:52;99091.91;;;27.56;44.12
18569;BME280;14780;48.316;-1.050;2022-09-01T07:13:39;99097.78;;;27.50;44.03
18569;BME280;14780;48.316;-1.050;2022-09-01T07:16:27;99094.03;;;27.41;44.00
18569;BME280;14780;48.316;-1.050;2022-09-01T07:19:12;99094.41;;;27.34;43.97
18569;BME280;14780;48.316;-1.050;2022-09-01T07:21:58;99088.91;;;27.34;44.16
18569;BME280;14780;48.316;-1.050;2022-09-01T07:24:43;99090.31;;;27.32;43.92
18569;BME280;14780;48.316;-1.050;2022-09-01T07:27:29;99088.97;;;27.29;44.23
18569;BME280;14780;48.316;-1.050;2022-09-01T07:30:15;99085.44;;;27.29;44.01
18569;BME280;14780;48.316;-1.050;2022-09-01T07:33:01;99087.94;;;27.25;44.16
18569;BME280;14780;48.316;-1.050;2022-09-01T07:35:46;99078.97;;;27.20;44.06
18569;BME280;14780;48.316;-1.050;2022-09-01T07:38:31;99077.63;;;27.17;44.14
18569;BME280;14780;48.316;-1.050;2022-09-01T07:41:16;99077.34;;;27.14;44.06
18569;BME280;14780;48.316;-1.050;2022-09-01T07:44:02;99083.13;;;27.12;44.02
18569;BME280;14780;48.316;-1.050;2022-09-01T07:46:48;99082.06;;;27.08;43.91
18569;BME280;14780;48.316;-1.050;2022-09-01T07:49:36;99071.16;;;27.03;43.85
18569;BME280;14780;48.316;-1.050;2022-09-01T07:52:21;99075.81;;;27.03;43.86
18569;BME280;14780;48.316;-1.050;2022-09-01T07:55:06;99080.53;;;27.02;44.08
18569;BME280;14780;48.316;-1.050;2022-09-01T07:57:54;99081.03;;;27.04;43.89
18569;BME280;14780;48.316;-1.050;2022-09-01T08:00:39;99070.06;;;27.04;44.07
18569;BME280;14780;48.316;-1.050;2022-09-01T08:03:27;99071.16;;;27.03;44.12
18569;BME280;14780;48.316;-1.050;2022-09-01T08:06:14;99071.97;;;27.04;43.88
18569;BME280;14780;48.316;-1.050;2022-09-01T08:09:02;99077.22;;;27.00;44.00
18569;BME280;14780;48.316;-1.050;2022-09-01T08:11:50;99070.09;;;26.99;44.07
18569;BME280;14780;48.316;-1.050;2022-09-01T08:14:36;99085.19;;;27.02;43.87
18569;BME280;14780;48.316;-1.050;2022-09-01T08:17:21;99082.72;;;27.00;44.13
18569;BME280;14780;48.316;-1.050;2022-09-01T08:20:06;99072.28;;;27.02;43.99
18569;BME280;14780;48.316;-1.050;2022-09-01T08:22:52;99078.28;;;27.04;43.86
18569;BME280;14780;48.316;-1.050;2022-09-01T08:25:37;99083.78;;;27.04;43.91
18569;BME280;14780;48.316;-1.050;2022-09-01T08:28:22;99079.41;;;27.03;43.86
18569;BME280;14780;48.316;-1.050;2022-09-01T08:31:09;99081.84;;;27.05;43.78
18569;BME280;14780;48.316;-1.050;2022-09-01T08:33:55;99075.81;;;27.03;43.76
18569;BME280;14780;48.316;-1.050;2022-09-01T08:36:39;99075.03;;;27.02;43.79
18569;BME280;14780;48.316;-1.050;2022-09-01T08:39:24;99077.78;;;27.02;43.96
18569;BME280;14780;48.316;-1.050;2022-09-01T08:45:30;99076.56;;;27.08;43.80
18569;BME280;14780;48.316;-1.050;2022-09-01T08:48:26;99076.06;;;27.06;43.90
18569;BME280;14780;48.316;-1.050;2022-09-01T08:54:47;99084.00;;;27.08;43.72
18569;BME280;14780;48.316;-1.050;2022-09-01T08:57:36;99088.69;;;27.07;43.92
18569;BME280;14780;48.316;-1.050;2022-09-01T09:00:25;99083.72;;;27.09;44.08
18569;BME280;14780;48.316;-1.050;2022-09-01T09:06:53;99088.06;;;27.15;43.93
18569;BME280;14780;48.316;-1.050;2022-09-01T09:09:45;99089.16;;;27.14;44.33
18569;BME280;14780;48.316;-1.050;2022-09-01T09:12:56;99105.88;;;27.18;43.98
18569;BME280;14780;48.316;-1.050;2022-09-01T09:15:51;99094.63;;;27.19;44.09
18569;BME280;14780;48.316;-1.050;2022-09-01T09:18:51;99103.97;;;27.18;43.99
18569;BME280;14780;48.316;-1.050;2022-09-01T09:21:42;99090.81;;;27.15;44.19
18569;BME280;14780;48.316;-1.050;2022-09-01T09:27:41;99090.53;;;27.17;44.14
18569;BME280;14780;48.316;-1.050;2022-09-01T09:30:28;99089.13;;;27.19;44.11
18569;BME280;14780;48.316;-1.050;2022-09-01T09:33:36;99084.09;;;27.26;44.29
18569;BME280;14780;48.316;-1.050;2022-09-01T09:36:28;99079.41;;;27.27;44.20
18569;BME280;14780;48.316;-1.050;2022-09-01T09:39:16;99081.34;;;27.26;44.29
18569;BME280;14780;48.316;-1.050;2022-09-01T09:42:08;99075.16;;;27.16;44.26
18569;BME280;14780;48.316;-1.050;2022-09-01T09:44:54;99074.94;;;27.07;44.19
18569;BME280;14780;48.316;-1.050;2022-09-01T09:47:42;99069.53;;;27.02;44.17
18569;BME280;14780;48.316;-1.050;2022-09-01T09:50:31;99078.28;;;27.04;44.36
18569;BME280;14780;48.316;-1.050;2022-09-01T09:53:36;99073.25;;;27.11;44.14
18569;BME280;14780;48.316;-1.050;2022-09-01T09:56:23;99078.72;;;27.16;44.51
18569;BME280;14780;48.316;-1.050;2022-09-01T09:59:33;99082.28;;;27.17;44.56
18569;BME280;14780;48.316;-1.050;2022-09-01T10:02:24;99075.38;;;27.19;44.24
18569;BME280;14780;48.316;-1.050;2022-09-01T10:11:37;99068.19;;;27.23;44.33
18569;BME280;14780;48.316;-1.050;2022-09-01T10:14:34;99076.88;;;27.30;44.16
18569;BME280;14780;48.316;-1.050;2022-09-01T10:17:31;99071.19;;;27.27;44.41
18569;BME280;14780;48.316;-1.050;2022-09-01T10:20:22;99067.38;;;27.23;44.55
18569;BME280;14780;48.316;-1.050;2022-09-01T10:23:07;99070.94;;;27.23;44.94
18569;BME280;14780;48.316;-1.050;2022-09-01T10:25:59;99074.22;;;27.25;44.99
18569;BME280;14780;48.316;-1.050;2022-09-01T10:29:05;99070.34;;;27.26;45.14
18569;BME280;14780;48.316;-1.050;2022-09-01T10:31:52;99073.59;;;27.28;44.97
18569;BME280;14780;48.316;-1.050;2022-09-01T10:34:38;99070.34;;;27.26;45.54
18569;BME280;14780;48.316;-1.050;2022-09-01T10:37:24;99074.22;;;27.25;45.66
18569;BME280;14780;48.316;-1.050;2022-09-01T10:52:11;99063.69;;;27.32;45.58
18569;BME280;14780;48.316;-1.050;2022-09-01T10:58:48;99043.56;;;27.37;45.25
18569;BME280;14780;48.316;-1.050;2022-09-01T11:10:31;99037.16;;;27.41;45.33
18569;BME280;14780;48.316;-1.050;2022-09-01T11:16:35;99043.84;;;27.35;45.07
18569;BME280;14780;48.316;-1.050;2022-09-01T11:19:39;99042.16;;;27.39;45.89
18569;BME280;14780;48.316;-1.050;2022-09-01T11:25:45;99029.53;;;27.38;45.35
18569;BME280;14780;48.316;-1.050;2022-09-01T11:28:36;99037.16;;;27.41;45.18
18569;BME280;14780;48.316;-1.050;2022-09-01T11:31:28;99041.31;;;27.39;45.29
18569;BME280;14780;48.316;-1.050;2022-09-01T11:34:17;99044.34;;;27.37;45.33
18569;BME280;14780;48.316;-1.050;2022-09-01T11:37:12;99035.03;;;27.38;45.28
18569;BME280;14780;48.316;-1.050;2022-09-01T11:40:04;99037.22;;;27.36;44.99
18569;BME280;14780;48.316;-1.050;2022-09-01T11:42:52;99035.31;;;27.37;45.20
18569;BME280;14780;48.316;-1.050;2022-09-01T11:45:50;99032.28;;;27.38;45.08
18569;BME280;14780;48.316;-1.050;2022-09-01T11:48:38;99031.16;;;27.39;45.05
18569;BME280;14780;48.316;-1.050;2022-09-01T11:51:46;99033.00;;;27.44;45.22
18569;BME280;14780;48.316;-1.050;2022-09-01T11:54:40;99029.16;;;27.45;45.03
18569;BME280;14780;48.316;-1.050;2022-09-01T11:57:34;99032.41;;;27.47;45.16
18569;BME280;14780;48.316;-1.050;2022-09-01T12:00:27;99031.59;;;27.46;45.14
18569;BME280;14780;48.316;-1.050;2022-09-01T12:03:27;99028.53;;;27.48;44.99
18569;BME280;14780;48.316;-1.050;2022-09-01T12:06:26;99029.97;;;27.45;44.96
18569;BME280;14780;48.316;-1.050;2022-09-01T12:09:12;99028.84;;;27.46;45.06
18569;BME280;14780;48.316;-1.050;2022-09-01T12:11:57;99023.03;;;27.48;45.11
18569;BME280;14780;48.316;-1.050;2022-09-01T12:14:43;99038.97;;;27.51;45.13
18569;BME280;14780;48.316;-1.050;2022-09-01T12:17:38;99039.75;;;27.51;44.97
18569;BME280;14780;48.316;-1.050;2022-09-01T12:20:33;99042.72;;;27.55;44.89
18569;BME280;14780;48.316;-1.050;2022-09-01T12:26:15;99034.69;;;27.58;44.86
18569;BME280;14780;48.316;-1.050;2022-09-01T12:29:01;99043.50;;;27.60;44.86
18569;BME280;14780;48.316;-1.050;2022-09-01T12:31:50;99041.88;;;27.59;45.00
18569;BME280;14780;48.316;-1.050;2022-09-01T12:34:43;99044.00;;;27.62;45.06
18569;BME280;14780;48.316;-1.050;2022-09-01T12:37:28;99038.22;;;27.64;45.04
18569;BME280;14780;48.316;-1.050;2022-09-01T12:40:47;99027.13;;;27.69;44.95
18569;BME280;14780;48.316;-1.050;2022-09-01T12:43:36;99032.09;;;27.67;45.14
18569;BME280;14780;48.316;-1.050;2022-09-01T12:46:43;99042.19;;;27.71;45.12
18569;BME280;14780;48.316;-1.050;2022-09-01T12:49:37;99037.00;;;27.70;45.18
18569;BME280;14780;48.316;-1.050;2022-09-01T12:52:24;99034.84;;;27.67;45.20
18569;BME280;14780;48.316;-1.050;2022-09-01T12:55:20;99046.38;;;27.69;45.20
18569;BME280;14780;48.316;-1.050;2022-09-01T12:58:07;99047.78;;;27.66;45.02
18569;BME280;14780;48.316;-1.050;2022-09-01T13:01:05;99054.31;;;27.70;45.38
18569;BME280;14780;48.316;-1.050;2022-09-01T13:04:27;99058.13;;;27.74;45.16
18569;BME280;14780;48.316;-1.050;2022-09-01T13:07:14;99052.91;;;27.73;45.45
18569;BME280;14780;48.316;-1.050;2022-09-01T13:09:59;99053.72;;;27.73;45.53
18569;BME280;14780;48.316;-1.050;2022-09-01T13:12:44;99050.44;;;27.71;45.58
18569;BME280;14780;48.316;-1.050;2022-09-01T13:15:29;99054.38;;;27.65;45.83
18569;BME280;14780;48.316;-1.050;2022-09-01T13:18:15;99053.03;;;27.63;45.72
18569;BME280;14780;48.316;-1.050;2022-09-01T13:21:00;99057.75;;;27.62;45.79
18569;BME280;14780;48.316;-1.050;2022-09-01T13:23:45;99052.03;;;27.59;46.00
18569;BME280;14780;48.316;-1.050;2022-09-01T13:26:30;99048.97;;;27.60;45.93
18569;BME280;14780;48.316;-1.050;2022-09-01T13:29:15;99046.75;;;27.62;45.83
18569;BME280;14780;48.316;-1.050;2022-09-01T13:32:01;99039.31;;;27.63;46.01
18569;BME280;14780;48.316;-1.050;2022-09-01T13:34:48;99034.13;;;27.61;46.02
18569;BME280;14780;48.316;-1.050;2022-09-01T13:37:34;99031.66;;;27.60;46.26
18569;BME280;14780;48.316;-1.050;2022-09-01T13:40:21;99024.03;;;27.57;46.29
18569;BME280;14780;48.316;-1.050;2022-09-01T13:43:06;99014.72;;;27.53;46.57
18569;BME280;14780;48.316;-1.050;2022-09-01T13:45:52;99010.06;;;27.53;46.37
18569;BME280;14780;48.316;-1.050;2022-09-01T13:48:37;99006.78;;;27.51;46.81
18569;BME280;14780;48.316;-1.050;2022-09-01T13:51:26;99005.16;;;27.50;46.72
18569;BME280;14780;48.316;-1.050;2022-09-01T13:54:11;99004.56;;;27.53;46.80
18569;BME280;14780;48.316;-1.050;2022-09-01T13:56:56;98995.78;;;27.51;47.25
18569;BME280;14780;48.316;-1.050;2022-09-01T13:59:42;98995.19;;;27.54;47.00
18569;BME280;14780;48.316;-1.050;2022-09-01T14:02:27;98990.28;;;27.51;47.19
18569;BME280;14780;48.316;-1.050;2022-09-01T14:05:13;98993.03;;;27.51;47.47
18569;BME280;14780;48.316;-1.050;2022-09-01T14:07:59;98994.69;;;27.52;47.15
18569;BME280;14780;48.316;-1.050;2022-09-01T14:10:47;98986.44;;;27.52;47.11
18569;BME280;14780;48.316;-1.050;2022-09-01T14:13:34;98986.44;;;27.52;47.21
18569;BME280;14780;48.316;-1.050;2022-09-01T14:16:20;98980.94;;;27.52;47.07
18569;BME280;14780;48.316;-1.050;2022-09-01T14:19:04;98974.34;;;27.53;47.07
18569;BME280;14780;48.316;-1.050;2022-09-01T14:21:49;98970.47;;;27.54;47.12
18569;BME280;14780;48.316;-1.050;2022-09-01T14:24:34;98967.72;;;27.54;47.29
18569;BME280;14780;48.316;-1.050;2022-09-01T14:27:19;98968.72;;;27.58;47.21
18569;BME280;14780;48.316;-1.050;2022-09-01T14:30:06;98967.09;;;27.57;47.41
18569;BME280;14780;48.316;-1.050;2022-09-01T14:32:53;98960.19;;;27.60;47.26
18569;BME280;14780;48.316;-1.050;2022-09-01T14:35:41;98955.53;;;27.60;47.31
18569;BME280;14780;48.316;-1.050;2022-09-01T14:38:27;98946.97;;;27.62;47.48
18569;BME280;14780;48.316;-1.050;2022-09-01T14:41:16;98951.66;;;27.61;47.16
18569;BME280;14780;48.316;-1.050;2022-09-01T14:44:05;98946.25;;;27.56;47.01
18569;BME280;14780;48.316;-1.050;2022-09-01T14:46:50;98949.00;;;27.56;47.24
18569;BME280;14780;48.316;-1.050;2022-09-01T14:49:36;98945.13;;;27.57;47.22
18569;BME280;14780;48.316;-1.050;2022-09-01T14:52:21;98937.91;;;27.61;47.23
18569;BME280;14780;48.316;-1.050;2022-09-01T14:55:06;98945.56;;;27.64;47.37
18569;BME280;14780;48.316;-1.050;2022-09-01T14:57:52;98943.31;;;27.66;47.41
18569;BME280;14780;48.316;-1.050;2022-09-01T15:00:38;98950.47;;;27.67;47.29
18569;BME280;14780;48.316;-1.050;2022-09-01T15:03:25;98944.16;;;27.67;47.32
18569;BME280;14780;48.316;-1.050;2022-09-01T15:06:14;98943.03;;;27.68;47.31
18569;BME280;14780;48.316;-1.050;2022-09-01T15:08:59;98938.34;;;27.68;47.47
18569;BME280;14780;48.316;-1.050;2022-09-01T15:11:46;98934.19;;;27.71;47.55
18569;BME280;14780;48.316;-1.050;2022-09-01T15:14:32;98932.44;;;27.75;47.45
18569;BME280;14780;48.316;-1.050;2022-09-01T15:17:17;98929.44;;;27.76;47.43
18569;BME280;14780;48.316;-1.050;2022-09-01T15:20:02;98931.13;;;27.72;47.17
18569;BME280;14780;48.316;-1.050;2022-09-01T15:23:07;98930.31;;;27.72;47.35
18569;BME280;14780;48.316;-1.050;2022-09-01T15:25:53;98923.47;;;27.69;47.37
18569;BME280;14780;48.316;-1.050;2022-09-01T15:28:38;98920.13;;;27.72;47.20
18569;BME280;14780;48.316;-1.050;2022-09-01T15:31:24;98913.00;;;27.71;47.36
18569;BME280;14780;48.316;-1.050;2022-09-01T15:34:12;98919.31;;;27.72;47.28